Time;durP1;ratioP1;P1;durP2;ratioP2;P2;SDS_P1;SDS_P2;PMS_P1;PMS_P2;Temp;Humidity;BMP_temperature;BMP_pressure;BME280_temperature;BME280_humidity;BME280_pressure;Samples;Min_cycle;Max_cycle;Signal;HPM_P1;HPM_P2
2021/12/28 00:00:00;;;;;;;;;;;;;;;;;;5070522;28;1185;-82
2021/12/28 00:02:26;;;;;;;;;;;;;;;;;;5054335;28;1303;-83
2021/12/28 00:04:54;;;;;;;;;;;;;;;;;;5088360;28;1180;-83
2021/12/28 00:07:20;;;;;;;;;;;;;;;;;;5053756;28;1343;-84
2021/12/28 00:09:46;;;;;;;;;;;;;;;;;;5051238;28;1898;-83
2021/12/28 00:12:11;;;;;;;;;;;;;;;;;;5087535;28;1124;-82
2021/12/28 00:14:38;;;;;;;;;;;;;;;;;;5087905;28;1299;-82
2021/12/28 00:19:48;;;;;;;;;;;;;;;;;;5088747;28;985;-83
2021/12/28 00:22:14;;;;;;;;;;;;;;;;;;5086267;28;1184;-82
2021/12/28 00:24:40;;;;;;;;;;;;;;;;;;5069327;28;1189;-83
2021/12/28 00:27:05;;;;;;;;;;;;;;;;;;5068558;28;1346;-83
2021/12/28 00:29:30;;;;;;;;;;;;;;;;;;5087832;28;1953;-82
2021/12/28 00:31:57;;;;;;;;;;;;;;;;;;5068589;28;1208;-82
2021/12/28 00:34:22;;;;;;;;;;;;;;;;;;5069445;28;1022;-83
2021/12/28 00:36:48;;;;;;;;;;;;;;;;;;5087263;28;1122;-83
2021/12/28 00:39:13;;;;;;;;;;;;;;;;;;5086167;28;1204;-82
2021/12/28 00:41:38;;;;;;;;;;;;;;;;;;5087472;28;1207;-82
2021/12/28 00:44:04;;;;;;;;;;;;;;;;;;5084627;28;1184;-82
2021/12/28 00:46:29;;;;;;;;;;;;;;;;;;5052409;28;1447;-82
2021/12/28 00:48:54;;;;;;;;;;;;;;;;;;5086323;28;1977;-82
2021/12/28 00:51:20;;;;;;;;;;;;;;;;;;5070028;28;1113;-82
2021/12/28 00:53:46;;;;;;;;;;;;;;;;;;5052278;28;1210;-83
2021/12/28 00:56:11;;;;;;;;;;;;;;;;;;5051523;28;1310;-83
2021/12/28 00:58:37;;;;;;;;;;;;;;;;;;5086293;28;1140;-82
2021/12/28 01:01:03;;;;;;;;;;;;;;;;;;5066504;28;1425;-83
2021/12/28 01:03:28;;;;;;;;;;;;;;;;;;5086061;28;1125;-83
2021/12/28 01:05:54;;;;;;;;;;;;;;;;;;5085960;28;1096;-83
2021/12/28 01:08:19;;;;;;;;;;;;;;;;;;5085725;28;1886;-81
2021/12/28 01:10:49;;;;;;;;;;;;;;;;;;5091240;28;1121;-81
2021/12/28 01:13:15;;;;;;;;;;;;;;;;;;5088969;28;1124;-81
2021/12/28 01:15:42;;;;;;;;;;;;;;;;;;5090935;28;1148;-81
2021/12/28 01:18:07;;;;;;;;;;;;;;;;;;5072306;28;1382;-83
2021/12/28 01:20:33;;;;;;;;;;;;;;;;;;5091668;28;1177;-82
2021/12/28 01:22:59;;;;;;;;;;;;;;;;;;5073489;28;1204;-82
2021/12/28 01:25:25;;;;;;;;;;;;;;;;;;5071620;28;1208;-82
2021/12/28 01:27:51;;;;;;;;;;;;;;;;;;5091740;28;1894;-82
2021/12/28 01:30:18;;;;;;;;;;;;;;;;;;5088350;28;1032;-82
2021/12/28 01:32:43;;;;;;;;;;;;;;;;;;5089237;28;1144;-82
2021/12/28 01:35:10;;;;;;;;;;;;;;;;;;5072367;28;1350;-82
2021/12/28 01:37:36;;;;;;;;;;;;;;;;;;5092379;28;1164;-83
2021/12/28 01:40:05;;;;;;;;;;;;;;;;;;5092077;28;1326;-82
2021/12/28 01:42:31;;;;;;;;;;;;;;;;;;5091072;28;1239;-83
2021/12/28 01:44:56;;;;;;;;;;;;;;;;;;5090885;28;1211;-82
2021/12/28 01:47:22;;;;;;;;;;;;;;;;;;5098418;28;1232;-83
2021/12/28 01:49:47;;;;;;;;;;;;;;;;;;5091260;28;1905;-82
2021/12/28 01:52:12;;;;;;;;;;;;;;;;;;5089562;28;1113;-82
2021/12/28 01:54:38;;;;;;;;;;;;;;;;;;5071768;28;1153;-83
2021/12/28 01:57:04;;;;;;;;;;;;;;;;;;5087948;28;1136;-83
2021/12/28 01:59:30;;;;;;;;;;;;;;;;;;5069857;28;1297;-83
2021/12/28 02:01:56;;;;;;;;;;;;;;;;;;5069697;28;1204;-83
2021/12/28 02:04:23;;;;;;;;;;;;;;;;;;5088044;28;1180;-82
2021/12/28 02:06:50;;;;;;;;;;;;;;;;;;5089292;28;1200;-82
2021/12/28 02:09:16;;;;;;;;;;;;;;;;;;5068820;28;1922;-82
2021/12/28 02:11:41;;;;;;;;;;;;;;;;;;5071661;28;1061;-82
2021/12/28 02:14:08;;;;;;;;;;;;;;;;;;5067793;28;1145;-82
2021/12/28 02:16:38;;;;;;;;;;;;;;;;;;5089509;28;1093;-83
2021/12/28 02:19:05;;;;;;;;;;;;;;;;;;5086041;28;1203;-81
2021/12/28 02:21:33;;;;;;;;;;;;;;;;;;5052822;28;1267;-82
2021/12/28 02:23:59;;;;;;;;;;;;;;;;;;5087491;28;1081;-82
2021/12/28 02:26:25;;;;;;;;;;;;;;;;;;5068988;28;1307;-83
2021/12/28 02:28:54;;;;;;;;;;;;;;;;;;5087476;28;1874;-82
2021/12/28 02:31:19;;;;;;;;;;;;;;;;;;5052214;28;1557;-82
2021/12/28 02:33:51;;;;;;;;;;;;;;;;;;5050192;28;1308;-82
2021/12/28 02:36:17;;;;;;;;;;;;;;;;;;5087430;28;1121;-82
2021/12/28 02:38:43;;;;;;;;;;;;;;;;;;5087612;28;1192;-82
2021/12/28 02:41:10;;;;;;;;;;;;;;;;;;5087466;28;1129;-82
2021/12/28 02:43:35;;;;;;;;;;;;;;;;;;5069218;28;1092;-82
2021/12/28 02:46:02;;;;;;;;;;;;;;;;;;5081834;28;1227;-82
2021/12/28 02:48:29;;;;;;;;;;;;;;;;;;5063838;28;1979;-82
2021/12/28 02:50:57;;;;;;;;;;;;;;;;;;5067733;28;1200;-82
2021/12/28 02:53:23;;;;;;;;;;;;;;;;;;5047530;28;1195;-81
2021/12/28 02:55:49;;;;;;;;;;;;;;;;;;5067346;28;1188;-82
2021/12/28 02:58:26;;;;;;;;;;;;;;;;;;5067102;28;1134;-81
2021/12/28 03:00:53;;;;;;;;;;;;;;;;;;5046985;28;1275;-81
2021/12/28 03:03:20;;;;;;;;;;;;;;;;;;5047506;28;1342;-82
2021/12/28 03:05:47;;;;;;;;;;;;;;;;;;5067742;28;1145;-82
2021/12/28 03:08:12;;;;;;;;;;;;;;;;;;5031576;28;1898;-82
2021/12/28 03:10:39;;;;;;;;;;;;;;;;;;5048753;28;1118;-82
2021/12/28 03:13:05;;;;;;;;;;;;;;;;;;5067670;28;1197;-82
2021/12/28 03:15:30;;;;;;;;;;;;;;;;;;5045833;28;1194;-82
2021/12/28 03:17:55;;;;;;;;;;;;;;;;;;5032923;28;1161;-82
2021/12/28 03:20:21;;;;;;;;;;;;;;;;;;5068850;28;1145;-82
2021/12/28 03:22:46;;;;;;;;;;;;;;;;;;5036387;28;1308;-82
2021/12/28 03:25:12;;;;;;;;;;;;;;;;;;5052460;28;1215;-81
2021/12/28 03:27:38;;;;;;;;;;;;;;;;;;5048276;28;1894;-80
2021/12/28 03:30:08;;;;;;;;;;;;;;;;;;5064389;28;1165;-80
2021/12/28 03:32:33;;;;;;;;;;;;;;;;;;5063060;28;1149;-80
2021/12/28 03:34:59;;;;;;;;;;;;;;;;;;5047786;28;1165;-80
2021/12/28 03:37:24;;;;;;;;;;;;;;;;;;5048230;28;1074;-80
2021/12/28 03:39:50;;;;;;;;;;;;;;;;;;5065182;28;1176;-80
2021/12/28 03:42:16;;;;;;;;;;;;;;;;;;5046255;28;1238;-80
2021/12/28 03:44:41;;;;;;;;;;;;;;;;;;5029662;28;1106;-81
2021/12/28 03:47:07;;;;;;;;;;;;;;;;;;5061037;28;1533;-79
2021/12/28 03:49:33;;;;;;;;;;;;;;;;;;5064713;28;1914;-80
2021/12/28 03:51:59;;;;;;;;;;;;;;;;;;5085190;28;1220;-80
2021/12/28 03:54:24;;;;;;;;;;;;;;;;;;5064592;28;1203;-81
2021/12/28 03:56:53;;;;;;;;;;;;;;;;;;5051635;28;1217;-80
2021/12/28 03:59:18;;;;;;;;;;;;;;;;;;5081193;28;1173;-79
2021/12/28 04:01:44;;;;;;;;;;;;;;;;;;5067406;28;1199;-79
2021/12/28 04:04:09;;;;;;;;;;;;;;;;;;5049406;28;1420;-79
2021/12/28 04:06:35;;;;;;;;;;;;;;;;;;5064590;28;1208;-81
2021/12/28 04:09:03;;;;;;;;;;;;;;;;;;5066932;28;1972;-79
2021/12/28 04:11:28;;;;;;;;;;;;;;;;;;5065995;28;1322;-79
2021/12/28 04:14:04;;;;;;;;;;;;;;;;;;5066402;28;1306;-80
2021/12/28 04:16:30;;;;;;;;;;;;;;;;;;5065470;28;1133;-79
2021/12/28 04:18:55;;;;;;;;;;;;;;;;;;5084666;28;1160;-81
2021/12/28 04:21:21;;;;;;;;;;;;;;;;;;5048198;28;1182;-80
2021/12/28 04:23:46;;;;;;;;;;;;;;;;;;5065351;28;1232;-80
2021/12/28 04:26:12;;;;;;;;;;;;;;;;;;5085084;28;1184;-81
2021/12/28 04:28:37;;;;;;;;;;;;;;;;;;5066606;28;1965;-82
2021/12/28 04:31:03;;;;;;;;;;;;;;;;;;5063789;28;1395;-81
2021/12/28 04:33:28;;;;;;;;;;;;;;;;;;5044223;28;1228;-81
2021/12/28 04:35:53;;;;;;;;;;;;;;;;;;5080944;28;1088;-81
2021/12/28 04:38:19;;;;;;;;;;;;;;;;;;5050508;28;1182;-80
2021/12/28 04:40:45;;;;;;;;;;;;;;;;;;5046103;28;1374;-81
2021/12/28 04:43:12;;;;;;;;;;;;;;;;;;5082477;28;1128;-81
2021/12/28 04:45:38;;;;;;;;;;;;;;;;;;5082463;28;1101;-81
2021/12/28 04:48:03;;;;;;;;;;;;;;;;;;5057633;28;1969;-81
2021/12/28 04:50:29;;;;;;;;;;;;;;;;;;5082507;28;1164;-80
2021/12/28 04:52:57;;;;;;;;;;;;;;;;;;5062027;28;1204;-80
2021/12/28 04:55:23;;;;;;;;;;;;;;;;;;5045932;28;1114;-80
2021/12/28 04:57:49;;;;;;;;;;;;;;;;;;5057060;28;1374;-81
2021/12/28 05:00:19;;;;;;;;;;;;;;;;;;5078329;28;1204;-80
2021/12/28 05:02:44;;;;;;;;;;;;;;;;;;5051827;28;1381;-80
2021/12/28 05:05:11;;;;;;;;;;;;;;;;;;5068650;28;1157;-80
2021/12/28 05:07:36;;;;;;;;;;;;;;;;;;5046284;28;1065;-80
2021/12/28 05:10:03;;;;;;;;;;;;;;;;;;5076335;28;1929;-80
2021/12/28 05:12:28;;;;;;;;;;;;;;;;;;5052673;28;1184;-81
2021/12/28 05:14:54;;;;;;;;;;;;;;;;;;5070941;28;1201;-79
2021/12/28 05:17:19;;;;;;;;;;;;;;;;;;5077285;28;1191;-80
2021/12/28 05:19:48;;;;;;;;;;;;;;;;;;5050880;28;1074;-81
2021/12/28 05:22:14;;;;;;;;;;;;;;;;;;5049425;28;1318;-80
2021/12/28 05:24:39;;;;;;;;;;;;;;;;;;5046975;28;1161;-81
2021/12/28 05:27:05;;;;;;;;;;;;;;;;;;5054914;28;1161;-80
2021/12/28 05:29:30;;;;;;;;;;;;;;;;;;5099350;28;1877;-80
2021/12/28 05:31:56;;;;;;;;;;;;;;;;;;5048722;28;1271;-79
2021/12/28 05:34:26;;;;;;;;;;;;;;;;;;5067135;28;1419;-79
2021/12/28 05:36:51;;;;;;;;;;;;;;;;;;5047013;28;1245;-80
2021/12/28 05:39:17;;;;;;;;;;;;;;;;;;5046708;28;1146;-80
2021/12/28 05:41:42;;;;;;;;;;;;;;;;;;5064972;28;1270;-80
2021/12/28 05:44:07;;;;;;;;;;;;;;;;;;5046945;28;1314;-80
2021/12/28 05:46:33;;;;;;;;;;;;;;;;;;5055480;28;1180;-80
2021/12/28 05:48:58;;;;;;;;;;;;;;;;;;5069661;28;1914;-79
2021/12/28 05:51:23;;;;;;;;;;;;;;;;;;5047568;28;1164;-80
2021/12/28 05:53:53;;;;;;;;;;;;;;;;;;5047989;28;1153;-80
2021/12/28 05:56:21;;;;;;;;;;;;;;;;;;5089917;28;1235;-80
2021/12/28 05:58:47;;;;;;;;;;;;;;;;;;5052493;28;1212;-81
2021/12/28 06:01:12;;;;;;;;;;;;;;;;;;5052300;28;1145;-80
2021/12/28 06:03:37;;;;;;;;;;;;;;;;;;5066961;28;1117;-81
2021/12/28 06:06:03;;;;;;;;;;;;;;;;;;5084692;28;1192;-80
2021/12/28 06:08:29;;;;;;;;;;;;;;;;;;5052543;28;1961;-80
2021/12/28 06:10:55;;;;;;;;;;;;;;;;;;5054207;28;1252;-81
2021/12/28 06:13:20;;;;;;;;;;;;;;;;;;5087417;28;1168;-83
2021/12/28 06:15:46;;;;;;;;;;;;;;;;;;5068524;28;1267;-80
2021/12/28 06:18:12;;;;;;;;;;;;;;;;;;5068617;28;1178;-81
2021/12/28 06:20:37;;;;;;;;;;;;;;;;;;5064809;28;1363;-77
2021/12/28 06:23:02;;;;;;;;;;;;;;;;;;5052010;28;1306;-81
2021/12/28 06:25:31;;;;;;;;;;;;;;;;;;5087369;28;1255;-81
2021/12/28 06:27:56;;;;;;;;;;;;;;;;;;5068508;28;1948;-82
2021/12/28 06:30:21;;;;;;;;;;;;;;;;;;5052154;28;1466;-81
2021/12/28 06:32:47;;;;;;;;;;;;;;;;;;5065970;28;1102;-81
2021/12/28 06:35:12;;;;;;;;;;;;;;;;;;5066899;28;1141;-82
2021/12/28 06:37:37;;;;;;;;;;;;;;;;;;5085212;28;1286;-81
2021/12/28 06:40:04;;;;;;;;;;;;;;;;;;5052179;28;1169;-81
2021/12/28 06:42:29;;;;;;;;;;;;;;;;;;5068990;28;1329;-81
2021/12/28 06:44:55;;;;;;;;;;;;;;;;;;5073934;28;1185;-81
2021/12/28 06:47:21;;;;;;;;;;;;;;;;;;5073003;28;1215;-81
2021/12/28 06:49:47;;;;;;;;;;;;;;;;;;5065302;28;1967;-81
2021/12/28 06:52:13;;;;;;;;;;;;;;;;;;5101082;28;1215;-81
2021/12/28 06:54:39;;;;;;;;;;;;;;;;;;5068158;28;1024;-83
2021/12/28 06:57:09;;;;;;;;;;;;;;;;;;5068674;28;1244;-81
2021/12/28 06:59:40;;;;;;;;;;;;;;;;;;5083397;28;1141;-82
2021/12/28 07:02:05;;;;;;;;;;;;;;;;;;5065775;28;1344;-82
2021/12/28 07:04:34;;;;;;;;;;;;;;;;;;5069035;28;1145;-81
2021/12/28 07:06:59;;;;;;;;;;;;;;;;;;5064240;28;1145;-81
2021/12/28 07:09:25;;;;;;;;;;;;;;;;;;5052067;28;1941;-82
2021/12/28 07:11:50;;;;;;;;;;;;;;;;;;5065814;28;1141;-83
2021/12/28 07:14:16;;;;;;;;;;;;;;;;;;5052561;28;1319;-83
2021/12/28 07:16:41;;;;;;;;;;;;;;;;;;5085247;28;1093;-84
2021/12/28 07:19:10;;;;;;;;;;;;;;;;;;5086706;28;1169;-82
2021/12/28 07:21:39;;;;;;;;;;;;;;;;;;5065470;28;1232;-83
2021/12/28 07:24:09;;;;;;;;;;;;;;;;;;5066853;28;1296;-81
2021/12/28 07:26:38;;;;;;;;;;;;;;;;;;5083978;28;1117;-81
2021/12/28 07:29:04;;;;;;;;;;;;;;;;;;5068296;28;1906;-81
2021/12/28 07:31:30;;;;;;;;;;;;;;;;;;5064413;28;1160;-81
2021/12/28 07:33:55;;;;;;;;;;;;;;;;;;5066659;28;1336;-82
2021/12/28 07:36:20;;;;;;;;;;;;;;;;;;5064893;28;1203;-81
2021/12/28 07:38:46;;;;;;;;;;;;;;;;;;5049902;28;1153;-81
2021/12/28 07:41:11;;;;;;;;;;;;;;;;;;5066762;28;1196;-81
2021/12/28 07:43:40;;;;;;;;;;;;;;;;;;5065442;28;1062;-81
2021/12/28 07:46:05;;;;;;;;;;;;;;;;;;5066535;28;1433;-81
2021/12/28 07:48:31;;;;;;;;;;;;;;;;;;5048893;28;2015;-83
2021/12/28 07:50:56;;;;;;;;;;;;;;;;;;5083119;28;1133;-82
2021/12/28 07:53:21;;;;;;;;;;;;;;;;;;5069775;28;1224;-83
2021/12/28 07:55:47;;;;;;;;;;;;;;;;;;5072520;28;1157;-83
2021/12/28 07:58:12;;;;;;;;;;;;;;;;;;5067736;28;1177;-82
2021/12/28 08:00:41;;;;;;;;;;;;;;;;;;5069439;28;1323;-83
2021/12/28 08:03:06;;;;;;;;;;;;;;;;;;5067024;28;1334;-82
2021/12/28 08:05:33;;;;;;;;;;;;;;;;;;5066218;28;1203;-81
2021/12/28 08:07:58;;;;;;;;;;;;;;;;;;5084596;28;1874;-82
2021/12/28 08:10:23;;;;;;;;;;;;;;;;;;5086904;28;1223;-84
2021/12/28 08:12:50;;;;;;;;;;;;;;;;;;5067904;28;1265;-83
2021/12/28 08:15:15;;;;;;;;;;;;;;;;;;5069419;28;1177;-81
2021/12/28 08:17:50;;;;;;;;;;;;;;;;;;5048268;28;1307;-82
2021/12/28 08:20:16;;;;;;;;;;;;;;;;;;5066386;28;1295;-81
2021/12/28 08:22:47;;;;;;;;;;;;;;;;;;5084559;28;1261;-80
2021/12/28 08:25:14;;;;;;;;;;;;;;;;;;5083183;28;1321;-81
2021/12/28 08:27:44;;;;;;;;;;;;;;;;;;5084100;28;1539;-81
2021/12/28 08:30:10;;;;;;;;;;;;;;;;;;5049879;28;1913;-82
2021/12/28 08:32:36;;;;;;;;;;;;;;;;;;5082636;28;1141;-81
2021/12/28 08:35:02;;;;;;;;;;;;;;;;;;5083644;28;1168;-80
2021/12/28 08:37:27;;;;;;;;;;;;;;;;;;5065921;28;1097;-81
2021/12/28 08:39:53;;;;;;;;;;;;;;;;;;5083560;28;1251;-82
2021/12/28 08:42:21;;;;;;;;;;;;;;;;;;5083583;28;1172;-83
2021/12/28 08:44:52;;;;;;;;;;;;;;;;;;5085663;28;1137;-83
2021/12/28 08:47:18;;;;;;;;;;;;;;;;;;5065220;28;1338;-83
2021/12/28 08:49:53;;;;;;;;;;;;;;;;;;5084064;28;1926;-82
2021/12/28 08:52:18;;;;;;;;;;;;;;;;;;5083758;28;1122;-81
2021/12/28 08:54:44;;;;;;;;;;;;;;;;;;5066523;28;1220;-83
2021/12/28 08:57:09;;;;;;;;;;;;;;;;;;5048672;28;1307;-80
2021/12/28 08:59:35;;;;;;;;;;;;;;;;;;5049819;28;1137;-81
2021/12/28 09:02:00;;;;;;;;;;;;;;;;;;5061809;28;1035;-81
2021/12/28 09:04:25;;;;;;;;;;;;;;;;;;5066118;28;1196;-82
2021/12/28 09:06:53;;;;;;;;;;;;;;;;;;5063820;28;1251;-81
2021/12/28 09:09:18;;;;;;;;;;;;;;;;;;5066822;28;1910;-83
2021/12/28 09:11:44;;;;;;;;;;;;;;;;;;5064375;28;1239;-82
2021/12/28 09:14:10;;;;;;;;;;;;;;;;;;5064068;28;1144;-81
2021/12/28 09:16:35;;;;;;;;;;;;;;;;;;5062546;28;1161;-81
2021/12/28 09:19:00;;;;;;;;;;;;;;;;;;5082414;28;1180;-83
2021/12/28 09:21:26;;;;;;;;;;;;;;;;;;5081685;28;1204;-79
2021/12/28 09:23:54;;;;;;;;;;;;;;;;;;5064263;28;1181;-78
2021/12/28 09:26:22;;;;;;;;;;;;;;;;;;5065258;28;1145;-79
2021/12/28 09:28:47;;;;;;;;;;;;;;;;;;5084424;28;1886;-80
2021/12/28 09:31:14;;;;;;;;;;;;;;;;;;5066733;28;1212;-78
2021/12/28 09:33:39;;;;;;;;;;;;;;;;;;5068838;28;1145;-79
2021/12/28 09:36:07;;;;;;;;;;;;;;;;;;5068597;28;1177;-79
2021/12/28 09:38:32;;;;;;;;;;;;;;;;;;5088532;28;1144;-78
2021/12/28 09:40:58;;;;;;;;;;;;;;;;;;5049955;28;1132;-78
2021/12/28 09:43:23;;;;;;;;;;;;;;;;;;5087242;28;1200;-79
2021/12/28 09:45:48;;;;;;;;;;;;;;;;;;5088920;28;1373;-79
2021/12/28 09:48:14;;;;;;;;;;;;;;;;;;5067133;28;1972;-79
2021/12/28 09:50:41;;;;;;;;;;;;;;;;;;5085777;28;1378;-80
2021/12/28 09:53:07;;;;;;;;;;;;;;;;;;5067008;28;1346;-80
2021/12/28 09:55:32;;;;;;;;;;;;;;;;;;5088204;28;1153;-80
2021/12/28 09:57:59;;;;;;;;;;;;;;;;;;5068303;28;1321;-78
2021/12/28 10:00:25;;;;;;;;;;;;;;;;;;5069688;28;1250;-78
2021/12/28 10:02:59;;;;;;;;;;;;;;;;;;5086262;28;1362;-79
2021/12/28 10:05:25;;;;;;;;;;;;;;;;;;5086123;28;1326;-79
2021/12/28 10:08:01;;;;;;;;;;;;;;;;;;5069368;28;1955;-81
2021/12/28 10:10:26;;;;;;;;;;;;;;;;;;5084863;28;1309;-83
2021/12/28 10:13:00;;;;;;;;;;;;;;;;;;5087699;28;1148;-81
2021/12/28 10:15:26;;;;;;;;;;;;;;;;;;5068556;28;1236;-82
2021/12/28 10:18:00;;;;;;;;;;;;;;;;;;5101822;28;1203;-82
2021/12/28 10:20:30;;;;;;;;;;;;;;;;;;5069369;28;1227;-83
2021/12/28 10:23:02;;;;;;;;;;;;;;;;;;5067251;28;1394;-82
2021/12/28 10:25:31;;;;;;;;;;;;;;;;;;5068353;28;1331;-83
2021/12/28 10:28:02;;;;;;;;;;;;;;;;;;5085848;28;1977;-83
2021/12/28 10:30:29;;;;;;;;;;;;;;;;;;5066549;28;1180;-83
2021/12/28 10:33:05;;;;;;;;;;;;;;;;;;5066173;28;1246;-82
2021/12/28 10:35:32;;;;;;;;;;;;;;;;;;5083856;28;1081;-80
2021/12/28 10:38:02;;;;;;;;;;;;;;;;;;5086043;28;1228;-81
2021/12/28 10:40:39;;;;;;;;;;;;;;;;;;5067345;28;1394;-82
2021/12/28 10:43:06;;;;;;;;;;;;;;;;;;5063990;28;1066;-82
2021/12/28 10:45:36;;;;;;;;;;;;;;;;;;5066674;28;1339;-83
2021/12/28 10:48:11;;;;;;;;;;;;;;;;;;5085254;28;1914;-82
2021/12/28 10:50:38;;;;;;;;;;;;;;;;;;5065718;28;1293;-82
2021/12/28 10:53:17;;;;;;;;;;;;;;;;;;5084445;28;1223;-83
2021/12/28 10:55:43;;;;;;;;;;;;;;;;;;5083631;28;1173;-82
2021/12/28 10:58:11;;;;;;;;;;;;;;;;;;5064986;28;1306;-83
2021/12/28 11:00:44;;;;;;;;;;;;;;;;;;5049640;28;1114;-85
2021/12/28 11:03:12;;;;;;;;;;;;;;;;;;5082804;28;1251;-83
2021/12/28 11:05:37;;;;;;;;;;;;;;;;;;5084338;28;1121;-83
2021/12/28 11:08:08;;;;;;;;;;;;;;;;;;5065896;28;1898;-83
2021/12/28 11:10:36;;;;;;;;;;;;;;;;;;5068166;28;1189;-83
2021/12/28 11:13:12;;;;;;;;;;;;;;;;;;5067678;28;1398;-83
2021/12/28 11:15:39;;;;;;;;;;;;;;;;;;5084923;28;1006;-83
2021/12/28 11:18:23;;;;;;;;;;;;;;;;;;5083165;28;1138;-81
2021/12/28 11:20:50;;;;;;;;;;;;;;;;;;5064985;28;1134;-81
2021/12/28 11:23:21;;;;;;;;;;;;;;;;;;5065320;28;1432;-81
2021/12/28 11:26:00;;;;;;;;;;;;;;;;;;5067965;28;1156;-82
2021/12/28 11:28:26;;;;;;;;;;;;;;;;;;5082500;28;1973;-79
2021/12/28 11:31:09;;;;;;;;;;;;;;;;;;5070830;28;1165;-78
2021/12/28 11:34:01;;;;;;;;;;;;;;;;;;5065828;28;1101;-78
2021/12/28 11:36:29;;;;;;;;;;;;;;;;;;5060166;28;1230;-79
2021/12/28 11:38:55;;;;;;;;;;;;;;;;;;5068853;28;1145;-76
2021/12/28 11:41:21;;;;;;;;;;;;;;;;;;5064870;28;1232;-77
2021/12/28 11:43:46;;;;;;;;;;;;;;;;;;5086276;28;1137;-78
2021/12/28 11:46:12;;;;;;;;;;;;;;;;;;5084687;28;1257;-79
2021/12/28 11:48:37;;;;;;;;;;;;;;;;;;5065578;28;1971;-79
2021/12/28 11:51:12;;;;;;;;;;;;;;;;;;5083521;28;1211;-81
2021/12/28 11:53:40;;;;;;;;;;;;;;;;;;5087603;28;1179;-83
2021/12/28 11:56:08;;;;;;;;;;;;;;;;;;5067357;28;1206;-81
2021/12/28 11:58:52;;;;;;;;;;;;;;;;;;5101664;28;1161;-80
2021/12/28 12:01:36;;;;;;;;;;;;;;;;;;5066921;28;1136;-81
2021/12/28 12:04:02;;;;;;;;;;;;;;;;;;5086011;28;1141;-82
2021/12/28 12:06:46;;;;;;;;;;;;;;;;;;5046279;28;1236;-82
2021/12/28 12:09:11;;;;;;;;;;;;;;;;;;5083777;28;1882;-81
2021/12/28 12:11:56;;;;;;;;;;;;;;;;;;5084890;28;1231;-81
2021/12/28 12:14:22;;;;;;;;;;;;;;;;;;5088988;28;1124;-82
2021/12/28 12:17:13;;;;;;;;;;;;;;;;;;5055732;28;1307;-81
2021/12/28 12:19:49;;;;;;;;;;;;;;;;;;5068279;28;1311;-82
2021/12/28 12:22:30;;;;;;;;;;;;;;;;;;5100077;28;1347;-82
2021/12/28 12:25:00;;;;;;;;;;;;;;;;;;5067145;28;1321;-82
2021/12/28 12:27:37;;;;;;;;;;;;;;;;;;5065688;28;1168;-81
2021/12/28 12:30:03;;;;;;;;;;;;;;;;;;5067684;28;1877;-81
2021/12/28 12:32:47;;;;;;;;;;;;;;;;;;5048544;28;1113;-81
2021/12/28 12:35:32;;;;;;;;;;;;;;;;;;5065717;28;1290;-81
2021/12/28 12:38:02;;;;;;;;;;;;;;;;;;5086575;28;1093;-82
2021/12/28 12:40:46;;;;;;;;;;;;;;;;;;5066433;28;1050;-82
2021/12/28 12:43:12;;;;;;;;;;;;;;;;;;5088001;28;1176;-81
2021/12/28 12:45:50;;;;;;;;;;;;;;;;;;5051164;28;1252;-82
2021/12/28 12:48:38;;;;;;;;;;;;;;;;;;5066975;28;1963;-83
2021/12/28 12:51:24;;;;;;;;;;;;;;;;;;5086223;28;1138;-82
2021/12/28 12:53:58;;;;;;;;;;;;;;;;;;5087187;28;1263;-82
2021/12/28 12:56:25;;;;;;;;;;;;;;;;;;5086539;28;1172;-83
2021/12/28 12:58:51;;;;;;;;;;;;;;;;;;5070051;28;1184;-82
2021/12/28 13:01:37;;;;;;;;;;;;;;;;;;5068418;28;1200;-81
2021/12/28 13:04:03;;;;;;;;;;;;;;;;;;5047255;28;1151;-83
2021/12/28 13:06:41;;;;;;;;;;;;;;;;;;5070120;28;1505;-82
2021/12/28 13:09:10;;;;;;;;;;;;;;;;;;5073879;28;2008;-82
2021/12/28 13:11:36;;;;;;;;;;;;;;;;;;5071851;28;1060;-80
2021/12/28 13:14:02;;;;;;;;;;;;;;;;;;5074710;28;1244;-84
2021/12/28 13:16:31;;;;;;;;;;;;;;;;;;5072066;28;1635;-82
2021/12/28 13:19:06;;;;;;;;;;;;;;;;;;5073836;28;1239;-83
2021/12/28 13:21:31;;;;;;;;;;;;;;;;;;5071357;28;1376;-81
2021/12/28 13:24:08;;;;;;;;;;;;;;;;;;5094442;28;1217;-83
2021/12/28 13:26:44;;;;;;;;;;;;;;;;;;5075293;28;1314;-83
2021/12/28 13:29:09;;;;;;;;;;;;;;;;;;5092657;28;1933;-80
2021/12/28 13:31:34;;;;;;;;;;;;;;;;;;5053887;28;1347;-82
2021/12/28 13:34:00;;;;;;;;;;;;;;;;;;5092577;28;1129;-80
2021/12/28 13:36:27;;;;;;;;;;;;;;;;;;5087089;28;1173;-77
2021/12/28 13:39:03;;;;;;;;;;;;;;;;;;5072070;28;1150;-80
2021/12/28 13:41:29;;;;;;;;;;;;;;;;;;5086780;28;1101;-79
2021/12/28 13:44:01;;;;;;;;;;;;;;;;;;5070578;28;1159;-81
2021/12/28 13:46:29;;;;;;;;;;;;;;;;;;5087326;28;1378;-85
2021/12/28 13:48:57;;;;;;;;;;;;;;;;;;5093297;28;1897;-90
2021/12/28 13:51:27;;;;;;;;;;;;;;;;;;5076348;28;1225;-89
2021/12/28 13:54:00;;;;;;;;;;;;;;;;;;5077414;28;1301;-88
2021/12/28 13:56:38;;;;;;;;;;;;;;;;;;5092555;28;1185;-88
2021/12/28 13:59:14;;;;;;;;;;;;;;;;;;5078872;28;1441;-89
2021/12/28 14:01:43;;;;;;;;;;;;;;;;;;5077278;28;1255;-91
2021/12/28 14:04:14;;;;;;;;;;;;;;;;;;5077827;28;1220;-89
2021/12/28 14:06:41;;;;;;;;;;;;;;;;;;5077258;28;1122;-89
2021/12/28 14:09:08;;;;;;;;;;;;;;;;;;5077990;28;1931;-89
2021/12/28 14:11:40;;;;;;;;;;;;;;;;;;5076916;28;1151;-89
2021/12/28 14:14:20;;;;;;;;;;;;;;;;;;5061476;28;1248;-89
2021/12/28 14:16:52;;;;;;;;;;;;;;;;;;5074811;28;1166;-89
2021/12/28 14:19:17;;;;;;;;;;;;;;;;;;5077146;28;1379;-90
2021/12/28 14:21:44;;;;;;;;;;;;;;;;;;5060903;28;1335;-89
2021/12/28 14:24:10;;;;;;;;;;;;;;;;;;5077098;28;1205;-89
2021/12/28 14:26:39;;;;;;;;;;;;;;;;;;5078053;28;1219;-87
2021/12/28 14:29:08;;;;;;;;;;;;;;;;;;5080154;28;1961;-90
2021/12/28 14:31:34;;;;;;;;;;;;;;;;;;5078746;28;1278;-89
2021/12/28 14:34:00;;;;;;;;;;;;;;;;;;5078686;28;1149;-89
2021/12/28 14:36:44;;;;;;;;;;;;;;;;;;5079066;28;1181;-88
2021/12/28 14:39:12;;;;;;;;;;;;;;;;;;5080214;28;1235;-88
2021/12/28 14:41:38;;;;;;;;;;;;;;;;;;5094154;28;1140;-88
2021/12/28 14:44:18;;;;;;;;;;;;;;;;;;5079656;28;1180;-89
2021/12/28 14:46:47;;;;;;;;;;;;;;;;;;5074936;28;1198;-89
2021/12/28 14:49:31;;;;;;;;;;;;;;;;;;5060480;28;1918;-86
2021/12/28 14:52:11;;;;;;;;;;;;;;;;;;5071922;28;1224;-82
2021/12/28 14:54:36;;;;;;;;;;;;;;;;;;5073243;28;1182;-84
2021/12/28 14:57:01;;;;;;;;;;;;;;;;;;5054225;28;1323;-84
2021/12/28 14:59:27;;;;;;;;;;;;;;;;;;5070546;28;1320;-84
2021/12/28 15:01:54;;;;;;;;;;;;;;;;;;5055426;28;1237;-84
2021/12/28 15:04:21;;;;;;;;;;;;;;;;;;5072735;28;1273;-84
2021/12/28 15:06:58;;;;;;;;;;;;;;;;;;5070443;28;1177;-84
2021/12/28 15:09:29;;;;;;;;;;;;;;;;;;5091377;28;1943;-87
2021/12/28 15:11:58;;;;;;;;;;;;;;;;;;5088359;28;1137;-84
2021/12/28 15:14:31;;;;;;;;;;;;;;;;;;5072438;28;1334;-86
2021/12/28 15:16:56;;;;;;;;;;;;;;;;;;5088806;28;1133;-84
2021/12/28 15:19:24;;;;;;;;;;;;;;;;;;5072040;28;1177;-79
2021/12/28 15:21:49;;;;;;;;;;;;;;;;;;5069529;28;1224;-82
2021/12/28 15:24:15;;;;;;;;;;;;;;;;;;5090584;28;1194;-85
2021/12/28 15:26:40;;;;;;;;;;;;;;;;;;5073442;28;1153;-87
2021/12/28 15:29:06;;;;;;;;;;;;;;;;;;5055911;28;1893;-83
2021/12/28 15:31:31;;;;;;;;;;;;;;;;;;5067956;28;1195;-82
2021/12/28 15:33:56;;;;;;;;;;;;;;;;;;5072097;28;1157;-83
2021/12/28 15:36:21;;;;;;;;;;;;;;;;;;5051538;28;1239;-83
2021/12/28 15:38:47;;;;;;;;;;;;;;;;;;5069862;28;1172;-86
2021/12/28 15:41:12;;;;;;;;;;;;;;;;;;5070161;28;1081;-83
2021/12/28 15:43:41;;;;;;;;;;;;;;;;;;5069555;28;1275;-85
2021/12/28 15:46:09;;;;;;;;;;;;;;;;;;5087345;28;1231;-85
2021/12/28 15:48:39;;;;;;;;;;;;;;;;;;5065971;28;1990;-84
2021/12/28 15:51:04;;;;;;;;;;;;;;;;;;5065646;28;1533;-85
2021/12/28 15:53:30;;;;;;;;;;;;;;;;;;5082407;28;1196;-86
2021/12/28 15:55:55;;;;;;;;;;;;;;;;;;5049165;28;1515;-84
2021/12/28 15:58:21;;;;;;;;;;;;;;;;;;5074635;28;1443;-85
2021/12/28 16:00:46;;;;;;;;;;;;;;;;;;5084078;28;1208;-85
2021/12/28 16:03:11;;;;;;;;;;;;;;;;;;5047178;28;1178;-83
2021/12/28 16:05:36;;;;;;;;;;;;;;;;;;5039381;28;1242;-79
2021/12/28 16:08:02;;;;;;;;;;;;;;;;;;5081296;28;1212;-83
2021/12/28 16:10:27;;;;;;;;;;;;;;;;;;5067292;28;1910;-82
2021/12/28 16:12:52;;;;;;;;;;;;;;;;;;5064195;28;1258;-87
2021/12/28 16:15:18;;;;;;;;;;;;;;;;;;5049809;28;1319;-81
2021/12/28 16:17:44;;;;;;;;;;;;;;;;;;5062142;28;1397;-77
2021/12/28 16:20:09;;;;;;;;;;;;;;;;;;5063258;28;1184;-78
2021/12/28 16:22:37;;;;;;;;;;;;;;;;;;5068733;28;1212;-79
2021/12/28 16:25:03;;;;;;;;;;;;;;;;;;5085441;28;1169;-79
2021/12/28 16:27:35;;;;;;;;;;;;;;;;;;5067335;28;1173;-78
2021/12/28 16:30:00;;;;;;;;;;;;;;;;;;5069063;28;1890;-78
2021/12/28 16:32:26;;;;;;;;;;;;;;;;;;5065169;28;1161;-78
2021/12/28 16:34:51;;;;;;;;;;;;;;;;;;5064176;28;1229;-78
2021/12/28 16:37:17;;;;;;;;;;;;;;;;;;5080829;28;1134;-78
2021/12/28 16:39:42;;;;;;;;;;;;;;;;;;5063716;28;1176;-78
2021/12/28 16:42:07;;;;;;;;;;;;;;;;;;5058745;28;1176;-79
2021/12/28 16:44:36;;;;;;;;;;;;;;;;;;5045619;28;1133;-79
2021/12/28 16:47:02;;;;;;;;;;;;;;;;;;5046070;28;1164;-78
2021/12/28 16:49:27;;;;;;;;;;;;;;;;;;5066198;28;1910;-78
2021/12/28 16:51:52;;;;;;;;;;;;;;;;;;5079171;28;1101;-79
2021/12/28 16:54:22;;;;;;;;;;;;;;;;;;5084712;28;1208;-80
2021/12/28 16:56:47;;;;;;;;;;;;;;;;;;5063897;28;1207;-77
2021/12/28 16:59:13;;;;;;;;;;;;;;;;;;5066845;28;1208;-78
2021/12/28 17:01:39;;;;;;;;;;;;;;;;;;5062213;28;1266;-77
2021/12/28 17:04:04;;;;;;;;;;;;;;;;;;5066657;28;1205;-79
2021/12/28 17:06:29;;;;;;;;;;;;;;;;;;5082722;28;1342;-78
2021/12/28 17:08:55;;;;;;;;;;;;;;;;;;5065341;28;1959;-79